メインページ
METAR-TAF:

METAR-TAF

空港 :

プラハ, チェコ共和国

ヴァーツラフ・ハヴェル・プラハ国際空港

緯度: 50-06N, 経度: 014-15E, 海抜: 365m

現時点の気象観測

当レポートは23分前の13:00(UTC)に作成
南東の風 5kt、東/南東からの間で変化する
気温 15°C
湿度 77%
気圧 1021 hPa
視程10km以上
高度1700ftの雲は散在している

METAR: LKPR 251300Z 14005KT 110V170 9999 SCT017 15/11 Q1021 NOSIG

時間: 15:23 (13:23 UTC)

予報

当レポートは2時間23分前の11:00(UTC)に作成
予報は25日の 12時(UTC)から 26日の 18時(UTC)まで有効
南東の風 4kt
視程10km以上
高度3000ftの千切れ雲あり
25日の 12時(UTC)から 25日の 15時(UTC)まで一時的に
北/北東の風 4kt
高度800ftの雲は散在している
高度2000ftの千切れ雲あり
確率 30% :
25日の 15時(UTC)から 25日の 18時(UTC)まで一時的に
高度3000ftの雲は散在している, 塔状積雲.
弱いにわか雨
26日の 00時(UTC)から 26日の 03時(UTC)まで徐々に
東/南東の風 6kt
視程10km以上
1,500メートル以下は雲なし、積乱雲なし
25日の 22時(UTC)から 26日の 07時(UTC)まで一時的に
視程: 3000m
高度300ftの雲は散在している
26日の 09時(UTC)から 26日の 17時(UTC)まで一時的に
視程: 6000m
高度2000ftの雲は散在している, 塔状積雲.
にわか雨

TAF: LKPR 251100Z 2512/2618 14004KT 9999 BKN030 TEMPO 2512/2515 03004KT SCT008 BKN020 PROB30 TEMPO 2515/2518 -SHRA SCT030TCU BECMG 2600/2603 12006KT CAVOK TEMPO 2522/2607 3000 BR SCT003 TEMPO 2609/2617 6000 SHRA SCT020TCU

4,000以上の空港の気象観測と天気予報(METAR報とTAF報)

利用可能な観測所は地図上に黄色い丸と赤い丸で示す。

丸の上にカーソルを重ねると観測所名を参照できる。

次にクリックすると気象観測と天気予報を参照できる。

マップの切り替え:黒色「×」印の緑ボタンをクリックして拡大、「-」印の緑ボタンをクリックして縮小、緑色の三角印をクリックして隣りの地図に切り替え


METAR-TAF: